sensor_id;sensor_type;location;lat;lon;timestamp;P1;durP1;ratioP1;P2;durP2;ratioP2
3405;SDS011;10008;48.682;9.016;2023-11-21T00:00:49;18.40;;;16.50;;
3405;SDS011;10008;48.682;9.016;2023-11-21T00:03:14;18.37;;;16.23;;
3405;SDS011;10008;48.682;9.016;2023-11-21T00:05:43;19.10;;;17.13;;
3405;SDS011;10008;48.682;9.016;2023-11-21T00:08:09;19.10;;;17.20;;
3405;SDS011;10008;48.682;9.016;2023-11-21T00:10:35;19.20;;;17.20;;
3405;SDS011;10008;48.682;9.016;2023-11-21T00:13:03;19.67;;;17.37;;
3405;SDS011;10008;48.682;9.016;2023-11-21T00:15:29;20.50;;;18.40;;
3405;SDS011;10008;48.682;9.016;2023-11-21T00:17:55;20.20;;;18.20;;
3405;SDS011;10008;48.682;9.016;2023-11-21T00:20:21;22.63;;;18.37;;
3405;SDS011;10008;48.682;9.016;2023-11-21T00:22:47;18.30;;;16.47;;
3405;SDS011;10008;48.682;9.016;2023-11-21T00:25:13;21.90;;;17.43;;
3405;SDS011;10008;48.682;9.016;2023-11-21T00:27:41;18.27;;;16.50;;
3405;SDS011;10008;48.682;9.016;2023-11-21T00:30:07;18.20;;;16.30;;
3405;SDS011;10008;48.682;9.016;2023-11-21T00:32:35;18.27;;;16.57;;
3405;SDS011;10008;48.682;9.016;2023-11-21T00:35:02;24.30;;;17.30;;
3405;SDS011;10008;48.682;9.016;2023-11-21T00:37:28;20.17;;;16.80;;
3405;SDS011;10008;48.682;9.016;2023-11-21T00:39:54;18.70;;;16.80;;
3405;SDS011;10008;48.682;9.016;2023-11-21T00:42:19;18.80;;;16.60;;
3405;SDS011;10008;48.682;9.016;2023-11-21T00:44:46;18.80;;;16.30;;
3405;SDS011;10008;48.682;9.016;2023-11-21T00:47:12;18.50;;;16.50;;
3405;SDS011;10008;48.682;9.016;2023-11-21T00:49:39;18.40;;;16.60;;
3405;SDS011;10008;48.682;9.016;2023-11-21T00:52:05;18.50;;;16.80;;
3405;SDS011;10008;48.682;9.016;2023-11-21T00:54:31;18.00;;;16.17;;
3405;SDS011;10008;48.682;9.016;2023-11-21T00:56:58;17.87;;;15.50;;
3405;SDS011;10008;48.682;9.016;2023-11-21T00:59:23;17.30;;;15.60;;
3405;SDS011;10008;48.682;9.016;2023-11-21T01:01:49;18.00;;;16.17;;
3405;SDS011;10008;48.682;9.016;2023-11-21T01:04:15;16.83;;;15.13;;
3405;SDS011;10008;48.682;9.016;2023-11-21T01:06:41;16.43;;;15.03;;
3405;SDS011;10008;48.682;9.016;2023-11-21T01:09:08;16.90;;;15.47;;
3405;SDS011;10008;48.682;9.016;2023-11-21T01:11:34;16.67;;;15.17;;
3405;SDS011;10008;48.682;9.016;2023-11-21T01:14:02;17.33;;;15.63;;
3405;SDS011;10008;48.682;9.016;2023-11-21T01:16:30;17.60;;;16.00;;
3405;SDS011;10008;48.682;9.016;2023-11-21T01:18:58;16.93;;;15.23;;
3405;SDS011;10008;48.682;9.016;2023-11-21T01:21:24;16.70;;;15.20;;
3405;SDS011;10008;48.682;9.016;2023-11-21T01:23:50;16.73;;;14.90;;
3405;SDS011;10008;48.682;9.016;2023-11-21T01:26:16;17.13;;;15.43;;
3405;SDS011;10008;48.682;9.016;2023-11-21T01:28:41;17.00;;;15.40;;
3405;SDS011;10008;48.682;9.016;2023-11-21T01:31:07;16.90;;;15.30;;
3405;SDS011;10008;48.682;9.016;2023-11-21T01:33:33;16.60;;;15.00;;
3405;SDS011;10008;48.682;9.016;2023-11-21T01:35:58;16.60;;;15.03;;
3405;SDS011;10008;48.682;9.016;2023-11-21T01:38:25;16.37;;;14.80;;
3405;SDS011;10008;48.682;9.016;2023-11-21T01:40:51;17.03;;;15.20;;
3405;SDS011;10008;48.682;9.016;2023-11-21T01:43:17;16.40;;;14.93;;
3405;SDS011;10008;48.682;9.016;2023-11-21T01:45:43;16.73;;;15.13;;
3405;SDS011;10008;48.682;9.016;2023-11-21T01:48:10;15.67;;;14.37;;
3405;SDS011;10008;48.682;9.016;2023-11-21T01:50:37;15.77;;;14.37;;
3405;SDS011;10008;48.682;9.016;2023-11-21T01:53:03;15.30;;;14.03;;
3405;SDS011;10008;48.682;9.016;2023-11-21T01:55:31;15.30;;;14.03;;
3405;SDS011;10008;48.682;9.016;2023-11-21T01:57:59;15.93;;;14.47;;
3405;SDS011;10008;48.682;9.016;2023-11-21T02:00:24;15.20;;;14.00;;
3405;SDS011;10008;48.682;9.016;2023-11-21T02:02:54;14.70;;;13.50;;
3405;SDS011;10008;48.682;9.016;2023-11-21T02:05:21;15.63;;;14.17;;
3405;SDS011;10008;48.682;9.016;2023-11-21T02:07:47;15.47;;;14.13;;
3405;SDS011;10008;48.682;9.016;2023-11-21T02:10:14;15.47;;;14.07;;
3405;SDS011;10008;48.682;9.016;2023-11-21T02:12:41;14.90;;;13.80;;
3405;SDS011;10008;48.682;9.016;2023-11-21T02:15:08;14.80;;;13.60;;
3405;SDS011;10008;48.682;9.016;2023-11-21T02:17:41;15.60;;;14.30;;
3405;SDS011;10008;48.682;9.016;2023-11-21T02:20:12;15.00;;;13.80;;
3405;SDS011;10008;48.682;9.016;2023-11-21T02:22:43;15.57;;;14.17;;
3405;SDS011;10008;48.682;9.016;2023-11-21T02:25:29;15.33;;;14.03;;
3405;SDS011;10008;48.682;9.016;2023-11-21T02:27:56;15.27;;;14.10;;
3405;SDS011;10008;48.682;9.016;2023-11-21T02:30:23;15.33;;;14.03;;
3405;SDS011;10008;48.682;9.016;2023-11-21T02:32:58;14.70;;;13.33;;
3405;SDS011;10008;48.682;9.016;2023-11-21T02:35:25;14.83;;;13.40;;
3405;SDS011;10008;48.682;9.016;2023-11-21T02:37:51;16.50;;;12.87;;
3405;SDS011;10008;48.682;9.016;2023-11-21T02:40:18;14.93;;;13.40;;
3405;SDS011;10008;48.682;9.016;2023-11-21T02:42:45;14.20;;;13.10;;
3405;SDS011;10008;48.682;9.016;2023-11-21T02:45:13;14.70;;;13.40;;
3405;SDS011;10008;48.682;9.016;2023-11-21T02:47:41;14.50;;;13.17;;
3405;SDS011;10008;48.682;9.016;2023-11-21T02:50:08;13.90;;;12.90;;
3405;SDS011;10008;48.682;9.016;2023-11-21T02:52:34;14.23;;;12.90;;
3405;SDS011;10008;48.682;9.016;2023-11-21T02:55:01;13.90;;;12.70;;
3405;SDS011;10008;48.682;9.016;2023-11-21T02:57:27;13.90;;;12.80;;
3405;SDS011;10008;48.682;9.016;2023-11-21T02:59:53;13.50;;;12.30;;
3405;SDS011;10008;48.682;9.016;2023-11-21T03:02:19;13.33;;;12.33;;
3405;SDS011;10008;48.682;9.016;2023-11-21T03:04:45;13.57;;;12.50;;
3405;SDS011;10008;48.682;9.016;2023-11-21T03:07:13;13.47;;;12.17;;
3405;SDS011;10008;48.682;9.016;2023-11-21T03:09:39;12.50;;;11.60;;
3405;SDS011;10008;48.682;9.016;2023-11-21T03:12:05;13.70;;;12.30;;
3405;SDS011;10008;48.682;9.016;2023-11-21T03:14:30;13.17;;;12.10;;
3405;SDS011;10008;48.682;9.016;2023-11-21T03:16:56;14.93;;;13.07;;
3405;SDS011;10008;48.682;9.016;2023-11-21T03:19:22;13.80;;;12.70;;
3405;SDS011;10008;48.682;9.016;2023-11-21T03:21:48;14.37;;;13.20;;
3405;SDS011;10008;48.682;9.016;2023-11-21T03:24:14;13.37;;;12.47;;
3405;SDS011;10008;48.682;9.016;2023-11-21T03:26:44;13.57;;;12.47;;
3405;SDS011;10008;48.682;9.016;2023-11-21T03:29:11;13.17;;;12.27;;
3405;SDS011;10008;48.682;9.016;2023-11-21T03:31:37;13.10;;;12.10;;
3405;SDS011;10008;48.682;9.016;2023-11-21T03:34:04;13.30;;;12.30;;
3405;SDS011;10008;48.682;9.016;2023-11-21T03:36:29;12.97;;;11.93;;
3405;SDS011;10008;48.682;9.016;2023-11-21T03:38:55;13.43;;;12.23;;
3405;SDS011;10008;48.682;9.016;2023-11-21T03:41:21;13.50;;;12.50;;
3405;SDS011;10008;48.682;9.016;2023-11-21T03:43:47;13.20;;;12.20;;
3405;SDS011;10008;48.682;9.016;2023-11-21T03:46:13;13.30;;;12.20;;
3405;SDS011;10008;48.682;9.016;2023-11-21T03:48:39;12.80;;;11.80;;
3405;SDS011;10008;48.682;9.016;2023-11-21T03:51:05;12.90;;;11.90;;
3405;SDS011;10008;48.682;9.016;2023-11-21T03:53:33;13.60;;;12.60;;
3405;SDS011;10008;48.682;9.016;2023-11-21T03:56:01;12.70;;;11.80;;
3405;SDS011;10008;48.682;9.016;2023-11-21T03:58:28;12.80;;;11.83;;
3405;SDS011;10008;48.682;9.016;2023-11-21T04:00:54;12.50;;;11.60;;
3405;SDS011;10008;48.682;9.016;2023-11-21T04:03:20;13.70;;;12.50;;
3405;SDS011;10008;48.682;9.016;2023-11-21T04:05:46;14.00;;;12.60;;
3405;SDS011;10008;48.682;9.016;2023-11-21T04:08:12;13.47;;;12.47;;
3405;SDS011;10008;48.682;9.016;2023-11-21T04:10:38;13.60;;;12.60;;
3405;SDS011;10008;48.682;9.016;2023-11-21T04:13:04;12.43;;;11.47;;
3405;SDS011;10008;48.682;9.016;2023-11-21T04:15:31;12.87;;;11.97;;
3405;SDS011;10008;48.682;9.016;2023-11-21T04:17:57;13.43;;;12.17;;
3405;SDS011;10008;48.682;9.016;2023-11-21T04:20:23;12.73;;;11.83;;
3405;SDS011;10008;48.682;9.016;2023-11-21T04:22:49;12.77;;;11.87;;
3405;SDS011;10008;48.682;9.016;2023-11-21T04:25:15;12.50;;;11.60;;
3405;SDS011;10008;48.682;9.016;2023-11-21T04:27:41;12.93;;;12.03;;
3405;SDS011;10008;48.682;9.016;2023-11-21T04:30:09;13.20;;;12.23;;
3405;SDS011;10008;48.682;9.016;2023-11-21T04:32:36;13.17;;;12.00;;
3405;SDS011;10008;48.682;9.016;2023-11-21T04:35:01;12.67;;;11.77;;
3405;SDS011;10008;48.682;9.016;2023-11-21T04:37:29;12.93;;;12.03;;
3405;SDS011;10008;48.682;9.016;2023-11-21T04:39:54;13.60;;;12.43;;
3405;SDS011;10008;48.682;9.016;2023-11-21T04:42:20;12.90;;;12.00;;
3405;SDS011;10008;48.682;9.016;2023-11-21T04:44:46;13.60;;;12.50;;
3405;SDS011;10008;48.682;9.016;2023-11-21T04:47:13;13.67;;;12.67;;
3405;SDS011;10008;48.682;9.016;2023-11-21T04:49:41;13.37;;;12.37;;
3405;SDS011;10008;48.682;9.016;2023-11-21T04:52:08;12.30;;;11.40;;
3405;SDS011;10008;48.682;9.016;2023-11-21T04:54:35;13.10;;;12.10;;
3405;SDS011;10008;48.682;9.016;2023-11-21T04:57:01;13.10;;;12.20;;
3405;SDS011;10008;48.682;9.016;2023-11-21T04:59:27;13.03;;;12.13;;
3405;SDS011;10008;48.682;9.016;2023-11-21T05:01:53;13.40;;;12.40;;
3405;SDS011;10008;48.682;9.016;2023-11-21T05:04:19;13.03;;;12.03;;
3405;SDS011;10008;48.682;9.016;2023-11-21T05:06:47;13.80;;;12.80;;
3405;SDS011;10008;48.682;9.016;2023-11-21T05:09:13;14.07;;;12.97;;
3405;SDS011;10008;48.682;9.016;2023-11-21T05:11:40;13.30;;;12.40;;
3405;SDS011;10008;48.682;9.016;2023-11-21T05:14:06;13.87;;;12.77;;
3405;SDS011;10008;48.682;9.016;2023-11-21T05:16:33;13.90;;;12.90;;
3405;SDS011;10008;48.682;9.016;2023-11-21T05:19:00;14.10;;;13.00;;
3405;SDS011;10008;48.682;9.016;2023-11-21T05:21:29;14.67;;;13.57;;
3405;SDS011;10008;48.682;9.016;2023-11-21T05:23:58;14.50;;;13.40;;
3405;SDS011;10008;48.682;9.016;2023-11-21T05:26:24;14.90;;;13.80;;
3405;SDS011;10008;48.682;9.016;2023-11-21T05:28:50;14.43;;;13.33;;
3405;SDS011;10008;48.682;9.016;2023-11-21T05:31:15;15.17;;;14.07;;
3405;SDS011;10008;48.682;9.016;2023-11-21T05:33:41;14.53;;;13.43;;
3405;SDS011;10008;48.682;9.016;2023-11-21T05:36:07;14.90;;;13.53;;
3405;SDS011;10008;48.682;9.016;2023-11-21T05:38:35;14.73;;;13.63;;
3405;SDS011;10008;48.682;9.016;2023-11-21T05:41:02;14.40;;;13.30;;
3405;SDS011;10008;48.682;9.016;2023-11-21T05:43:28;15.70;;;14.60;;
3405;SDS011;10008;48.682;9.016;2023-11-21T05:45:55;17.00;;;15.70;;
3405;SDS011;10008;48.682;9.016;2023-11-21T05:48:21;15.60;;;14.30;;
3405;SDS011;10008;48.682;9.016;2023-11-21T05:50:48;15.07;;;13.87;;
3405;SDS011;10008;48.682;9.016;2023-11-21T05:53:14;14.70;;;13.60;;
3405;SDS011;10008;48.682;9.016;2023-11-21T05:55:41;14.73;;;13.53;;
3405;SDS011;10008;48.682;9.016;2023-11-21T05:58:07;14.90;;;13.70;;
3405;SDS011;10008;48.682;9.016;2023-11-21T06:00:33;15.30;;;14.10;;
3405;SDS011;10008;48.682;9.016;2023-11-21T06:02:59;15.50;;;14.20;;
3405;SDS011;10008;48.682;9.016;2023-11-21T06:05:25;15.40;;;14.00;;
3405;SDS011;10008;48.682;9.016;2023-11-21T06:07:55;15.00;;;13.80;;
3405;SDS011;10008;48.682;9.016;2023-11-21T06:10:23;14.70;;;13.60;;
3405;SDS011;10008;48.682;9.016;2023-11-21T06:12:50;17.70;;;16.20;;
3405;SDS011;10008;48.682;9.016;2023-11-21T06:15:16;15.33;;;14.13;;
3405;SDS011;10008;48.682;9.016;2023-11-21T06:17:44;14.90;;;13.70;;
3405;SDS011;10008;48.682;9.016;2023-11-21T06:20:14;14.37;;;13.27;;
3405;SDS011;10008;48.682;9.016;2023-11-21T06:22:43;14.80;;;13.70;;
3405;SDS011;10008;48.682;9.016;2023-11-21T06:25:11;14.90;;;13.67;;
3405;SDS011;10008;48.682;9.016;2023-11-21T06:27:42;14.77;;;13.67;;
3405;SDS011;10008;48.682;9.016;2023-11-21T06:30:13;14.43;;;13.43;;
3405;SDS011;10008;48.682;9.016;2023-11-21T06:32:40;14.20;;;13.10;;
3405;SDS011;10008;48.682;9.016;2023-11-21T06:35:07;14.67;;;13.57;;
3405;SDS011;10008;48.682;9.016;2023-11-21T06:37:35;14.50;;;13.40;;
3405;SDS011;10008;48.682;9.016;2023-11-21T06:40:01;14.23;;;13.23;;
3405;SDS011;10008;48.682;9.016;2023-11-21T06:42:29;16.07;;;14.70;;
3405;SDS011;10008;48.682;9.016;2023-11-21T06:44:55;15.10;;;13.90;;
3405;SDS011;10008;48.682;9.016;2023-11-21T06:47:22;14.33;;;13.30;;
3405;SDS011;10008;48.682;9.016;2023-11-21T06:49:53;15.17;;;14.07;;
3405;SDS011;10008;48.682;9.016;2023-11-21T06:52:19;14.80;;;13.53;;
3405;SDS011;10008;48.682;9.016;2023-11-21T06:54:45;15.20;;;14.00;;
3405;SDS011;10008;48.682;9.016;2023-11-21T06:57:12;15.93;;;14.73;;
3405;SDS011;10008;48.682;9.016;2023-11-21T06:59:38;16.23;;;14.63;;
3405;SDS011;10008;48.682;9.016;2023-11-21T07:02:04;16.83;;;15.43;;
3405;SDS011;10008;48.682;9.016;2023-11-21T07:04:32;18.43;;;16.73;;
3405;SDS011;10008;48.682;9.016;2023-11-21T07:06:58;19.07;;;17.17;;
3405;SDS011;10008;48.682;9.016;2023-11-21T07:09:24;16.70;;;15.40;;
3405;SDS011;10008;48.682;9.016;2023-11-21T07:11:51;16.97;;;15.67;;
3405;SDS011;10008;48.682;9.016;2023-11-21T07:14:17;15.95;;;14.55;;
3405;SDS011;10008;48.682;9.016;2023-11-21T07:16:45;16.53;;;15.20;;
3405;SDS011;10008;48.682;9.016;2023-11-21T07:19:11;15.93;;;14.73;;
3405;SDS011;10008;48.682;9.016;2023-11-21T07:21:37;15.10;;;13.90;;
3405;SDS011;10008;48.682;9.016;2023-11-21T07:24:05;15.67;;;14.30;;
3405;SDS011;10008;48.682;9.016;2023-11-21T07:26:32;16.13;;;14.93;;
3405;SDS011;10008;48.682;9.016;2023-11-21T07:28:59;15.30;;;14.20;;
3405;SDS011;10008;48.682;9.016;2023-11-21T07:31:25;15.60;;;14.30;;
3405;SDS011;10008;48.682;9.016;2023-11-21T07:33:51;15.53;;;14.23;;
3405;SDS011;10008;48.682;9.016;2023-11-21T07:36:18;15.20;;;14.00;;
3405;SDS011;10008;48.682;9.016;2023-11-21T07:38:46;15.10;;;13.80;;
3405;SDS011;10008;48.682;9.016;2023-11-21T07:41:11;15.60;;;14.30;;
3405;SDS011;10008;48.682;9.016;2023-11-21T07:43:40;15.30;;;14.07;;
3405;SDS011;10008;48.682;9.016;2023-11-21T07:46:07;15.50;;;14.20;;
3405;SDS011;10008;48.682;9.016;2023-11-21T07:48:33;15.23;;;13.93;;
3405;SDS011;10008;48.682;9.016;2023-11-21T07:51:00;15.50;;;14.30;;
3405;SDS011;10008;48.682;9.016;2023-11-21T07:53:28;15.20;;;14.00;;
3405;SDS011;10008;48.682;9.016;2023-11-21T07:55:55;14.70;;;13.50;;
3405;SDS011;10008;48.682;9.016;2023-11-21T07:58:21;15.13;;;13.83;;
3405;SDS011;10008;48.682;9.016;2023-11-21T08:00:47;15.90;;;14.60;;
3405;SDS011;10008;48.682;9.016;2023-11-21T08:03:14;14.70;;;13.60;;
3405;SDS011;10008;48.682;9.016;2023-11-21T08:05:39;14.93;;;13.63;;
3405;SDS011;10008;48.682;9.016;2023-11-21T08:08:05;15.43;;;14.03;;
3405;SDS011;10008;48.682;9.016;2023-11-21T08:10:31;15.37;;;13.97;;
3405;SDS011;10008;48.682;9.016;2023-11-21T08:12:57;15.00;;;13.77;;
3405;SDS011;10008;48.682;9.016;2023-11-21T08:15:23;15.53;;;14.33;;
3405;SDS011;10008;48.682;9.016;2023-11-21T08:17:49;15.40;;;14.20;;
3405;SDS011;10008;48.682;9.016;2023-11-21T08:20:14;15.60;;;14.10;;
3405;SDS011;10008;48.682;9.016;2023-11-21T08:22:43;15.20;;;13.90;;
3405;SDS011;10008;48.682;9.016;2023-11-21T08:25:09;14.17;;;13.17;;
3405;SDS011;10008;48.682;9.016;2023-11-21T08:27:35;14.53;;;13.33;;
3405;SDS011;10008;48.682;9.016;2023-11-21T08:30:04;13.90;;;12.90;;
3405;SDS011;10008;48.682;9.016;2023-11-21T08:32:30;13.90;;;12.80;;
3405;SDS011;10008;48.682;9.016;2023-11-21T08:34:58;14.30;;;13.00;;
3405;SDS011;10008;48.682;9.016;2023-11-21T08:37:24;13.70;;;12.60;;
3405;SDS011;10008;48.682;9.016;2023-11-21T08:39:52;13.47;;;12.47;;
3405;SDS011;10008;48.682;9.016;2023-11-21T08:42:18;13.43;;;12.33;;
3405;SDS011;10008;48.682;9.016;2023-11-21T08:44:44;13.07;;;11.90;;
3405;SDS011;10008;48.682;9.016;2023-11-21T08:47:11;13.37;;;12.37;;
3405;SDS011;10008;48.682;9.016;2023-11-21T08:49:37;13.20;;;12.20;;
3405;SDS011;10008;48.682;9.016;2023-11-21T08:52:03;13.13;;;12.13;;
3405;SDS011;10008;48.682;9.016;2023-11-21T08:54:30;13.97;;;12.70;;
3405;SDS011;10008;48.682;9.016;2023-11-21T08:56:56;13.53;;;12.40;;
3405;SDS011;10008;48.682;9.016;2023-11-21T08:59:23;13.70;;;12.23;;
3405;SDS011;10008;48.682;9.016;2023-11-21T09:01:50;13.17;;;12.17;;
3405;SDS011;10008;48.682;9.016;2023-11-21T09:04:16;13.10;;;12.10;;
3405;SDS011;10008;48.682;9.016;2023-11-21T09:06:41;12.90;;;11.93;;
3405;SDS011;10008;48.682;9.016;2023-11-21T09:09:07;13.50;;;12.27;;
3405;SDS011;10008;48.682;9.016;2023-11-21T09:11:35;13.43;;;12.30;;
3405;SDS011;10008;48.682;9.016;2023-11-21T09:14:02;13.20;;;12.10;;
3405;SDS011;10008;48.682;9.016;2023-11-21T09:16:30;13.53;;;12.53;;
3405;SDS011;10008;48.682;9.016;2023-11-21T09:18:57;13.40;;;12.30;;
3405;SDS011;10008;48.682;9.016;2023-11-21T09:21:23;13.33;;;12.23;;
3405;SDS011;10008;48.682;9.016;2023-11-21T09:23:50;13.30;;;12.13;;
3405;SDS011;10008;48.682;9.016;2023-11-21T09:26:16;14.93;;;13.63;;
3405;SDS011;10008;48.682;9.016;2023-11-21T09:28:43;13.30;;;12.20;;
3405;SDS011;10008;48.682;9.016;2023-11-21T09:31:13;13.13;;;12.13;;
3405;SDS011;10008;48.682;9.016;2023-11-21T09:33:41;14.67;;;13.43;;
3405;SDS011;10008;48.682;9.016;2023-11-21T09:36:13;13.67;;;12.67;;
3405;SDS011;10008;48.682;9.016;2023-11-21T09:38:40;13.13;;;12.10;;
3405;SDS011;10008;48.682;9.016;2023-11-21T09:41:08;13.87;;;12.87;;
3405;SDS011;10008;48.682;9.016;2023-11-21T09:43:55;13.70;;;12.70;;
3405;SDS011;10008;48.682;9.016;2023-11-21T09:46:24;14.20;;;13.20;;
3405;SDS011;10008;48.682;9.016;2023-11-21T09:48:53;14.40;;;13.30;;
3405;SDS011;10008;48.682;9.016;2023-11-21T09:51:21;16.23;;;14.73;;
3405;SDS011;10008;48.682;9.016;2023-11-21T09:53:52;16.20;;;15.00;;
3405;SDS011;10008;48.682;9.016;2023-11-21T09:56:18;14.83;;;13.63;;
3405;SDS011;10008;48.682;9.016;2023-11-21T09:58:50;14.90;;;13.60;;
3405;SDS011;10008;48.682;9.016;2023-11-21T10:01:18;14.53;;;13.33;;
3405;SDS011;10008;48.682;9.016;2023-11-21T10:03:44;15.27;;;14.07;;
3405;SDS011;10008;48.682;9.016;2023-11-21T10:06:12;15.43;;;14.13;;
3405;SDS011;10008;48.682;9.016;2023-11-21T10:08:39;15.40;;;14.10;;
3405;SDS011;10008;48.682;9.016;2023-11-21T10:11:07;15.63;;;14.33;;
3405;SDS011;10008;48.682;9.016;2023-11-21T10:13:36;15.37;;;14.17;;
3405;SDS011;10008;48.682;9.016;2023-11-21T10:16:03;15.63;;;14.27;;
3405;SDS011;10008;48.682;9.016;2023-11-21T10:18:31;15.30;;;14.00;;
3405;SDS011;10008;48.682;9.016;2023-11-21T10:20:59;17.43;;;15.60;;
3405;SDS011;10008;48.682;9.016;2023-11-21T10:23:25;15.77;;;14.47;;
3405;SDS011;10008;48.682;9.016;2023-11-21T10:25:52;16.00;;;14.70;;
3405;SDS011;10008;48.682;9.016;2023-11-21T10:28:18;16.30;;;14.90;;
3405;SDS011;10008;48.682;9.016;2023-11-21T10:30:44;16.10;;;14.80;;
3405;SDS011;10008;48.682;9.016;2023-11-21T10:33:10;16.30;;;15.00;;
3405;SDS011;10008;48.682;9.016;2023-11-21T10:38:07;16.80;;;15.40;;
3405;SDS011;10008;48.682;9.016;2023-11-21T10:40:39;17.57;;;16.07;;
3405;SDS011;10008;48.682;9.016;2023-11-21T10:43:09;17.63;;;16.03;;
3405;SDS011;10008;48.682;9.016;2023-11-21T10:45:38;18.60;;;16.90;;
3405;SDS011;10008;48.682;9.016;2023-11-21T10:48:08;17.93;;;16.43;;
3405;SDS011;10008;48.682;9.016;2023-11-21T10:50:36;18.40;;;16.80;;
3405;SDS011;10008;48.682;9.016;2023-11-21T10:53:02;17.10;;;15.50;;
3405;SDS011;10008;48.682;9.016;2023-11-21T10:55:29;18.17;;;16.60;;
3405;SDS011;10008;48.682;9.016;2023-11-21T10:57:58;18.07;;;16.37;;
3405;SDS011;10008;48.682;9.016;2023-11-21T11:00:26;18.37;;;16.77;;
3405;SDS011;10008;48.682;9.016;2023-11-21T11:02:53;18.93;;;17.17;;
3405;SDS011;10008;48.682;9.016;2023-11-21T11:05:20;22.10;;;19.87;;
3405;SDS011;10008;48.682;9.016;2023-11-21T11:07:55;20.03;;;18.13;;
3405;SDS011;10008;48.682;9.016;2023-11-21T11:10:26;23.47;;;18.70;;
3405;SDS011;10008;48.682;9.016;2023-11-21T11:12:54;19.40;;;17.70;;
3405;SDS011;10008;48.682;9.016;2023-11-21T11:15:21;19.90;;;18.20;;
3405;SDS011;10008;48.682;9.016;2023-11-21T11:17:47;19.73;;;17.83;;
3405;SDS011;10008;48.682;9.016;2023-11-21T11:20:14;20.20;;;18.10;;
3405;SDS011;10008;48.682;9.016;2023-11-21T11:22:44;20.83;;;18.80;;
3405;SDS011;10008;48.682;9.016;2023-11-21T11:25:29;20.40;;;18.60;;
3405;SDS011;10008;48.682;9.016;2023-11-21T11:28:15;20.60;;;18.87;;
3405;SDS011;10008;48.682;9.016;2023-11-21T11:31:04;19.93;;;18.13;;
3405;SDS011;10008;48.682;9.016;2023-11-21T11:33:45;21.53;;;19.30;;
3405;SDS011;10008;48.682;9.016;2023-11-21T11:38:45;20.30;;;18.60;;
3405;SDS011;10008;48.682;9.016;2023-11-21T11:41:12;20.23;;;18.43;;
3405;SDS011;10008;48.682;9.016;2023-11-21T11:43:38;20.60;;;18.77;;
3405;SDS011;10008;48.682;9.016;2023-11-21T11:46:10;19.63;;;17.90;;
3405;SDS011;10008;48.682;9.016;2023-11-21T11:48:40;21.03;;;19.03;;
3405;SDS011;10008;48.682;9.016;2023-11-21T11:51:12;19.63;;;17.93;;
3405;SDS011;10008;48.682;9.016;2023-11-21T11:53:42;18.73;;;17.03;;
3405;SDS011;10008;48.682;9.016;2023-11-21T11:58:51;18.37;;;16.67;;
3405;SDS011;10008;48.682;9.016;2023-11-21T12:01:24;19.30;;;17.53;;
3405;SDS011;10008;48.682;9.016;2023-11-21T12:06:56;19.00;;;17.37;;
3405;SDS011;10008;48.682;9.016;2023-11-21T12:09:25;19.03;;;17.37;;
3405;SDS011;10008;48.682;9.016;2023-11-21T12:11:52;19.10;;;17.40;;
3405;SDS011;10008;48.682;9.016;2023-11-21T12:14:21;17.83;;;16.33;;
3405;SDS011;10008;48.682;9.016;2023-11-21T12:16:48;19.00;;;17.30;;
3405;SDS011;10008;48.682;9.016;2023-11-21T12:19:14;20.17;;;18.17;;
3405;SDS011;10008;48.682;9.016;2023-11-21T12:21:40;19.93;;;18.03;;
3405;SDS011;10008;48.682;9.016;2023-11-21T12:24:13;20.60;;;18.77;;
3405;SDS011;10008;48.682;9.016;2023-11-21T12:26:41;19.70;;;18.00;;
3405;SDS011;10008;48.682;9.016;2023-11-21T12:29:07;17.73;;;16.23;;
3405;SDS011;10008;48.682;9.016;2023-11-21T12:31:34;18.47;;;16.87;;
3405;SDS011;10008;48.682;9.016;2023-11-21T12:34:00;18.07;;;16.47;;
3405;SDS011;10008;48.682;9.016;2023-11-21T12:36:26;18.20;;;16.60;;
3405;SDS011;10008;48.682;9.016;2023-11-21T12:38:54;17.63;;;16.13;;
3405;SDS011;10008;48.682;9.016;2023-11-21T12:41:20;17.60;;;16.10;;
3405;SDS011;10008;48.682;9.016;2023-11-21T12:43:46;17.23;;;15.80;;
3405;SDS011;10008;48.682;9.016;2023-11-21T12:46:13;17.70;;;16.20;;
3405;SDS011;10008;48.682;9.016;2023-11-21T12:48:43;17.37;;;15.97;;
3405;SDS011;10008;48.682;9.016;2023-11-21T12:51:11;18.07;;;16.57;;
3405;SDS011;10008;48.682;9.016;2023-11-21T12:53:40;17.37;;;15.97;;
3405;SDS011;10008;48.682;9.016;2023-11-21T12:56:07;16.87;;;15.57;;
3405;SDS011;10008;48.682;9.016;2023-11-21T12:58:37;17.70;;;16.10;;
3405;SDS011;10008;48.682;9.016;2023-11-21T13:01:07;16.90;;;15.40;;
3405;SDS011;10008;48.682;9.016;2023-11-21T13:03:45;17.00;;;15.63;;
3405;SDS011;10008;48.682;9.016;2023-11-21T13:06:14;16.27;;;14.97;;
3405;SDS011;10008;48.682;9.016;2023-11-21T13:08:41;16.50;;;15.20;;
3405;SDS011;10008;48.682;9.016;2023-11-21T13:11:09;16.60;;;15.30;;
3405;SDS011;10008;48.682;9.016;2023-11-21T13:13:36;17.37;;;15.97;;
3405;SDS011;10008;48.682;9.016;2023-11-21T13:16:03;17.00;;;15.60;;
3405;SDS011;10008;48.682;9.016;2023-11-21T13:18:30;16.70;;;15.30;;
3405;SDS011;10008;48.682;9.016;2023-11-21T13:21:00;16.90;;;15.50;;
3405;SDS011;10008;48.682;9.016;2023-11-21T13:23:34;16.17;;;14.87;;
3405;SDS011;10008;48.682;9.016;2023-11-21T13:26:01;16.63;;;15.23;;
3405;SDS011;10008;48.682;9.016;2023-11-21T13:28:29;16.53;;;15.23;;
3405;SDS011;10008;48.682;9.016;2023-11-21T13:30:57;16.70;;;15.20;;
3405;SDS011;10008;48.682;9.016;2023-11-21T13:33:28;16.97;;;15.50;;
3405;SDS011;10008;48.682;9.016;2023-11-21T13:35:53;17.63;;;16.03;;
3405;SDS011;10008;48.682;9.016;2023-11-21T13:38:21;17.67;;;16.17;;
3405;SDS011;10008;48.682;9.016;2023-11-21T13:40:54;17.80;;;16.30;;
3405;SDS011;10008;48.682;9.016;2023-11-21T13:43:21;18.50;;;16.90;;
3405;SDS011;10008;48.682;9.016;2023-11-21T13:45:51;19.53;;;17.73;;
3405;SDS011;10008;48.682;9.016;2023-11-21T13:48:27;16.63;;;15.23;;
3405;SDS011;10008;48.682;9.016;2023-11-21T13:50:56;15.80;;;14.50;;
3405;SDS011;10008;48.682;9.016;2023-11-21T13:53:41;14.43;;;13.13;;
3405;SDS011;10008;48.682;9.016;2023-11-21T13:56:07;14.17;;;13.07;;
3405;SDS011;10008;48.682;9.016;2023-11-21T13:58:34;13.80;;;12.80;;
3405;SDS011;10008;48.682;9.016;2023-11-21T14:01:26;14.30;;;13.20;;
3405;SDS011;10008;48.682;9.016;2023-11-21T14:03:54;14.10;;;13.00;;
3405;SDS011;10008;48.682;9.016;2023-11-21T14:06:27;14.27;;;13.17;;
3405;SDS011;10008;48.682;9.016;2023-11-21T14:09:00;14.10;;;12.73;;
3405;SDS011;10008;48.682;9.016;2023-11-21T14:11:30;14.30;;;13.10;;
3405;SDS011;10008;48.682;9.016;2023-11-21T14:13:56;14.00;;;12.93;;
3405;SDS011;10008;48.682;9.016;2023-11-21T14:16:24;14.20;;;13.13;;
3405;SDS011;10008;48.682;9.016;2023-11-21T14:18:50;14.30;;;13.20;;
3405;SDS011;10008;48.682;9.016;2023-11-21T14:21:26;13.93;;;12.93;;
3405;SDS011;10008;48.682;9.016;2023-11-21T14:23:52;14.40;;;13.30;;
3405;SDS011;10008;48.682;9.016;2023-11-21T14:26:20;15.07;;;13.87;;
3405;SDS011;10008;48.682;9.016;2023-11-21T14:28:46;15.83;;;14.53;;
3405;SDS011;10008;48.682;9.016;2023-11-21T14:31:14;15.60;;;14.40;;
3405;SDS011;10008;48.682;9.016;2023-11-21T14:33:42;15.10;;;13.80;;
3405;SDS011;10008;48.682;9.016;2023-11-21T14:36:11;15.30;;;14.10;;
3405;SDS011;10008;48.682;9.016;2023-11-21T14:38:37;15.50;;;14.30;;
3405;SDS011;10008;48.682;9.016;2023-11-21T14:41:04;14.63;;;13.53;;
3405;SDS011;10008;48.682;9.016;2023-11-21T14:43:33;15.57;;;14.47;;
3405;SDS011;10008;48.682;9.016;2023-11-21T14:46:04;15.63;;;14.43;;